メインページ
METAR-TAF:

METAR-TAF

空港 :

メンドーサ, アルゼンチン

緯度: 32-50S, 経度: 068-47W, 海抜: 705m

現時点の気象観測

当レポートは49分前の11:00(UTC)に作成
南西の風 3kt
気温 6°C
湿度 81%
気圧 1023 hPa
視程10km以上
1,500メートル以下は雲なし、積乱雲なし

METAR: SAME 221100Z 23003KT CAVOK 06/03 Q1023

時間: 08:49 (11:49 UTC)

予報

当レポートは49分前の11:00(UTC)に作成
予報は22日の 12時(UTC)から 23日の 12時(UTC)まで有効
北東の風 5kt
視程10km以上
高度4000ftの雲はほとんどない
22日の 12時(UTC)から 22日の 14時(UTC)まで一時的に
の風 kt
視程: 5000m

TAF: SAME 221100Z 2212/2312 05005KT 9999 FEW040 TX20/2220Z TN06/2310Z TEMPO 2212/2214 00000KT 5000 NSC

4,000以上の空港の気象観測と天気予報(METAR報とTAF報)

利用可能な観測所は地図上に黄色い丸と赤い丸で示す。

丸の上にカーソルを重ねると観測所名を参照できる。

次にクリックすると気象観測と天気予報を参照できる。

マップの切り替え:黒色「×」印の緑ボタンをクリックして拡大、「-」印の緑ボタンをクリックして縮小、緑色の三角印をクリックして隣りの地図に切り替え


METAR-TAF: